sensor_id;sensor_type;location;lat;lon;timestamp;P1;durP1;ratioP1;P2;durP2;ratioP2
11211;SDS011;5663;50.864;12.096;2024-02-16T00:00:24;5.23;;;3.67;;
11211;SDS011;5663;50.864;12.096;2024-02-16T00:02:54;7.93;;;3.60;;
11211;SDS011;5663;50.864;12.096;2024-02-16T00:05:23;5.70;;;3.47;;
11211;SDS011;5663;50.864;12.096;2024-02-16T00:07:50;6.03;;;3.37;;
11211;SDS011;5663;50.864;12.096;2024-02-16T00:10:18;6.13;;;3.33;;
11211;SDS011;5663;50.864;12.096;2024-02-16T00:12:47;6.40;;;3.37;;
11211;SDS011;5663;50.864;12.096;2024-02-16T00:15:15;6.20;;;3.43;;
11211;SDS011;5663;50.864;12.096;2024-02-16T00:17:42;10.60;;;3.40;;
11211;SDS011;5663;50.864;12.096;2024-02-16T00:20:13;5.37;;;3.13;;
11211;SDS011;5663;50.864;12.096;2024-02-16T00:22:43;4.90;;;3.13;;
11211;SDS011;5663;50.864;12.096;2024-02-16T00:25:10;6.17;;;3.43;;
11211;SDS011;5663;50.864;12.096;2024-02-16T00:27:38;7.03;;;3.47;;
11211;SDS011;5663;50.864;12.096;2024-02-16T00:30:06;4.63;;;3.10;;
11211;SDS011;5663;50.864;12.096;2024-02-16T00:32:37;6.30;;;3.43;;
11211;SDS011;5663;50.864;12.096;2024-02-16T00:35:05;4.60;;;2.87;;
11211;SDS011;5663;50.864;12.096;2024-02-16T00:37:35;8.97;;;3.10;;
11211;SDS011;5663;50.864;12.096;2024-02-16T00:40:04;4.97;;;3.20;;
11211;SDS011;5663;50.864;12.096;2024-02-16T00:42:33;4.43;;;3.00;;
11211;SDS011;5663;50.864;12.096;2024-02-16T00:45:02;5.43;;;3.27;;
11211;SDS011;5663;50.864;12.096;2024-02-16T00:47:30;5.27;;;3.37;;
11211;SDS011;5663;50.864;12.096;2024-02-16T00:49:59;6.97;;;3.00;;
11211;SDS011;5663;50.864;12.096;2024-02-16T00:52:29;7.27;;;3.40;;
11211;SDS011;5663;50.864;12.096;2024-02-16T00:54:59;4.47;;;3.13;;
11211;SDS011;5663;50.864;12.096;2024-02-16T00:57:27;5.27;;;3.70;;
11211;SDS011;5663;50.864;12.096;2024-02-16T00:59:55;4.37;;;3.20;;
11211;SDS011;5663;50.864;12.096;2024-02-16T01:02:22;4.20;;;3.00;;
11211;SDS011;5663;50.864;12.096;2024-02-16T01:04:51;9.97;;;3.80;;
11211;SDS011;5663;50.864;12.096;2024-02-16T01:07:20;5.37;;;3.13;;
11211;SDS011;5663;50.864;12.096;2024-02-16T01:09:47;4.67;;;2.70;;
11211;SDS011;5663;50.864;12.096;2024-02-16T01:12:17;4.43;;;3.13;;
11211;SDS011;5663;50.864;12.096;2024-02-16T01:14:44;5.87;;;2.97;;
11211;SDS011;5663;50.864;12.096;2024-02-16T01:17:12;3.43;;;2.90;;
11211;SDS011;5663;50.864;12.096;2024-02-16T01:19:40;6.07;;;2.80;;
11211;SDS011;5663;50.864;12.096;2024-02-16T01:22:07;4.03;;;2.83;;
11211;SDS011;5663;50.864;12.096;2024-02-16T01:24:35;4.53;;;3.23;;
11211;SDS011;5663;50.864;12.096;2024-02-16T01:27:03;6.83;;;3.10;;
11211;SDS011;5663;50.864;12.096;2024-02-16T01:29:32;5.83;;;3.30;;
11211;SDS011;5663;50.864;12.096;2024-02-16T01:32:01;5.00;;;2.90;;
11211;SDS011;5663;50.864;12.096;2024-02-16T01:34:29;8.33;;;3.10;;
11211;SDS011;5663;50.864;12.096;2024-02-16T01:36:57;6.73;;;2.80;;
11211;SDS011;5663;50.864;12.096;2024-02-16T01:39:26;6.67;;;3.10;;
11211;SDS011;5663;50.864;12.096;2024-02-16T01:41:54;5.20;;;2.77;;
11211;SDS011;5663;50.864;12.096;2024-02-16T01:44:24;4.90;;;3.27;;
11211;SDS011;5663;50.864;12.096;2024-02-16T01:46:54;4.93;;;3.40;;
11211;SDS011;5663;50.864;12.096;2024-02-16T01:49:23;4.50;;;2.70;;
11211;SDS011;5663;50.864;12.096;2024-02-16T01:51:51;8.73;;;3.10;;
11211;SDS011;5663;50.864;12.096;2024-02-16T01:57:13;5.67;;;3.20;;
11211;SDS011;5663;50.864;12.096;2024-02-16T01:59:42;4.87;;;2.70;;
11211;SDS011;5663;50.864;12.096;2024-02-16T02:02:15;6.17;;;3.20;;
11211;SDS011;5663;50.864;12.096;2024-02-16T02:04:43;3.33;;;2.90;;
11211;SDS011;5663;50.864;12.096;2024-02-16T02:07:11;5.03;;;3.20;;
11211;SDS011;5663;50.864;12.096;2024-02-16T02:09:39;5.40;;;2.93;;
11211;SDS011;5663;50.864;12.096;2024-02-16T02:12:09;5.20;;;3.30;;
11211;SDS011;5663;50.864;12.096;2024-02-16T02:14:37;4.43;;;3.00;;
11211;SDS011;5663;50.864;12.096;2024-02-16T02:17:06;3.93;;;2.70;;
11211;SDS011;5663;50.864;12.096;2024-02-16T02:19:36;5.03;;;2.90;;
11211;SDS011;5663;50.864;12.096;2024-02-16T02:22:10;4.57;;;3.03;;
11211;SDS011;5663;50.864;12.096;2024-02-16T02:24:39;6.77;;;2.50;;
11211;SDS011;5663;50.864;12.096;2024-02-16T02:27:08;7.27;;;3.23;;
11211;SDS011;5663;50.864;12.096;2024-02-16T02:29:35;5.13;;;2.90;;
11211;SDS011;5663;50.864;12.096;2024-02-16T02:32:03;4.87;;;2.80;;
11211;SDS011;5663;50.864;12.096;2024-02-16T02:34:31;6.53;;;3.03;;
11211;SDS011;5663;50.864;12.096;2024-02-16T02:36:59;7.57;;;2.43;;
11211;SDS011;5663;50.864;12.096;2024-02-16T02:39:28;4.10;;;2.53;;
11211;SDS011;5663;50.864;12.096;2024-02-16T02:41:55;5.90;;;2.70;;
11211;SDS011;5663;50.864;12.096;2024-02-16T02:44:24;5.03;;;2.50;;
11211;SDS011;5663;50.864;12.096;2024-02-16T02:46:52;6.97;;;2.80;;
11211;SDS011;5663;50.864;12.096;2024-02-16T02:49:20;3.37;;;2.70;;
11211;SDS011;5663;50.864;12.096;2024-02-16T02:51:48;6.27;;;2.37;;
11211;SDS011;5663;50.864;12.096;2024-02-16T02:54:15;5.67;;;2.70;;
11211;SDS011;5663;50.864;12.096;2024-02-16T02:56:44;4.00;;;2.77;;
11211;SDS011;5663;50.864;12.096;2024-02-16T02:59:13;5.70;;;3.17;;
11211;SDS011;5663;50.864;12.096;2024-02-16T03:01:41;6.43;;;2.97;;
11211;SDS011;5663;50.864;12.096;2024-02-16T03:04:12;8.33;;;2.90;;
11211;SDS011;5663;50.864;12.096;2024-02-16T03:06:41;4.37;;;2.70;;
11211;SDS011;5663;50.864;12.096;2024-02-16T03:09:10;5.27;;;2.63;;
11211;SDS011;5663;50.864;12.096;2024-02-16T03:11:38;9.53;;;3.10;;
11211;SDS011;5663;50.864;12.096;2024-02-16T03:14:09;3.67;;;2.70;;
11211;SDS011;5663;50.864;12.096;2024-02-16T03:16:37;2.60;;;2.40;;
11211;SDS011;5663;50.864;12.096;2024-02-16T03:19:06;4.27;;;2.57;;
11211;SDS011;5663;50.864;12.096;2024-02-16T03:21:35;3.40;;;2.37;;
11211;SDS011;5663;50.864;12.096;2024-02-16T03:24:03;7.23;;;2.83;;
11211;SDS011;5663;50.864;12.096;2024-02-16T03:26:32;4.83;;;3.13;;
11211;SDS011;5663;50.864;12.096;2024-02-16T03:29:01;7.83;;;3.33;;
11211;SDS011;5663;50.864;12.096;2024-02-16T03:31:30;5.27;;;3.27;;
11211;SDS011;5663;50.864;12.096;2024-02-16T03:33:59;6.00;;;3.20;;
11211;SDS011;5663;50.864;12.096;2024-02-16T03:36:28;5.03;;;2.67;;
11211;SDS011;5663;50.864;12.096;2024-02-16T03:38:57;4.97;;;2.60;;
11211;SDS011;5663;50.864;12.096;2024-02-16T03:41:25;5.30;;;2.63;;
11211;SDS011;5663;50.864;12.096;2024-02-16T03:43:53;6.00;;;3.10;;
11211;SDS011;5663;50.864;12.096;2024-02-16T03:46:24;3.80;;;2.70;;
11211;SDS011;5663;50.864;12.096;2024-02-16T03:48:53;5.43;;;2.63;;
11211;SDS011;5663;50.864;12.096;2024-02-16T03:51:20;3.93;;;2.60;;
11211;SDS011;5663;50.864;12.096;2024-02-16T03:53:53;2.83;;;2.37;;
11211;SDS011;5663;50.864;12.096;2024-02-16T03:56:22;4.90;;;2.70;;
11211;SDS011;5663;50.864;12.096;2024-02-16T03:58:49;5.07;;;3.00;;
11211;SDS011;5663;50.864;12.096;2024-02-16T04:01:16;4.03;;;2.90;;
11211;SDS011;5663;50.864;12.096;2024-02-16T04:03:45;10.43;;;3.17;;
11211;SDS011;5663;50.864;12.096;2024-02-16T04:06:17;5.33;;;2.90;;
11211;SDS011;5663;50.864;12.096;2024-02-16T04:08:44;4.00;;;2.80;;
11211;SDS011;5663;50.864;12.096;2024-02-16T04:11:12;5.67;;;2.50;;
11211;SDS011;5663;50.864;12.096;2024-02-16T04:13:42;5.33;;;2.80;;
11211;SDS011;5663;50.864;12.096;2024-02-16T04:16:11;8.77;;;2.70;;
11211;SDS011;5663;50.864;12.096;2024-02-16T04:18:40;5.80;;;3.07;;
11211;SDS011;5663;50.864;12.096;2024-02-16T04:21:08;4.93;;;2.57;;
11211;SDS011;5663;50.864;12.096;2024-02-16T04:23:37;4.63;;;2.70;;
11211;SDS011;5663;50.864;12.096;2024-02-16T04:26:05;5.83;;;3.07;;
11211;SDS011;5663;50.864;12.096;2024-02-16T04:28:35;6.47;;;2.93;;
11211;SDS011;5663;50.864;12.096;2024-02-16T04:31:02;4.50;;;2.60;;
11211;SDS011;5663;50.864;12.096;2024-02-16T04:33:30;5.93;;;2.83;;
11211;SDS011;5663;50.864;12.096;2024-02-16T04:35:59;3.93;;;2.47;;
11211;SDS011;5663;50.864;12.096;2024-02-16T04:38:27;5.13;;;2.80;;
11211;SDS011;5663;50.864;12.096;2024-02-16T04:40:56;5.80;;;3.23;;
11211;SDS011;5663;50.864;12.096;2024-02-16T04:43:23;5.30;;;2.70;;
11211;SDS011;5663;50.864;12.096;2024-02-16T04:45:51;6.50;;;2.90;;
11211;SDS011;5663;50.864;12.096;2024-02-16T04:48:20;5.83;;;2.93;;
11211;SDS011;5663;50.864;12.096;2024-02-16T04:50:47;2.97;;;2.63;;
11211;SDS011;5663;50.864;12.096;2024-02-16T04:53:16;4.63;;;2.93;;
11211;SDS011;5663;50.864;12.096;2024-02-16T04:55:44;4.57;;;2.80;;
11211;SDS011;5663;50.864;12.096;2024-02-16T04:58:14;5.60;;;2.73;;
11211;SDS011;5663;50.864;12.096;2024-02-16T05:00:42;8.63;;;3.00;;
11211;SDS011;5663;50.864;12.096;2024-02-16T05:03:13;7.47;;;2.90;;
11211;SDS011;5663;50.864;12.096;2024-02-16T05:05:41;7.07;;;3.17;;
11211;SDS011;5663;50.864;12.096;2024-02-16T05:08:11;4.33;;;2.43;;
11211;SDS011;5663;50.864;12.096;2024-02-16T05:10:39;5.63;;;3.07;;
11211;SDS011;5663;50.864;12.096;2024-02-16T05:13:06;4.77;;;2.67;;
11211;SDS011;5663;50.864;12.096;2024-02-16T05:15:38;3.50;;;2.47;;
11211;SDS011;5663;50.864;12.096;2024-02-16T05:18:06;3.47;;;2.50;;
11211;SDS011;5663;50.864;12.096;2024-02-16T05:20:34;9.33;;;2.90;;
11211;SDS011;5663;50.864;12.096;2024-02-16T05:23:02;4.50;;;2.93;;
11211;SDS011;5663;50.864;12.096;2024-02-16T05:25:31;3.30;;;2.67;;
11211;SDS011;5663;50.864;12.096;2024-02-16T05:27:59;6.20;;;2.80;;
11211;SDS011;5663;50.864;12.096;2024-02-16T05:30:28;3.07;;;2.47;;
11211;SDS011;5663;50.864;12.096;2024-02-16T05:32:57;5.60;;;2.67;;
11211;SDS011;5663;50.864;12.096;2024-02-16T05:35:26;6.93;;;2.70;;
11211;SDS011;5663;50.864;12.096;2024-02-16T05:38:00;4.47;;;2.80;;
11211;SDS011;5663;50.864;12.096;2024-02-16T05:40:35;4.23;;;2.40;;
11211;SDS011;5663;50.864;12.096;2024-02-16T05:43:13;5.53;;;2.80;;
11211;SDS011;5663;50.864;12.096;2024-02-16T05:45:41;4.40;;;2.80;;
11211;SDS011;5663;50.864;12.096;2024-02-16T05:48:14;3.47;;;2.80;;
11211;SDS011;5663;50.864;12.096;2024-02-16T05:50:41;4.80;;;2.80;;
11211;SDS011;5663;50.864;12.096;2024-02-16T05:53:11;5.40;;;2.90;;
11211;SDS011;5663;50.864;12.096;2024-02-16T05:55:41;3.67;;;2.83;;
11211;SDS011;5663;50.864;12.096;2024-02-16T05:58:10;6.07;;;2.57;;
11211;SDS011;5663;50.864;12.096;2024-02-16T06:00:39;4.07;;;2.60;;
11211;SDS011;5663;50.864;12.096;2024-02-16T06:03:09;3.53;;;2.90;;
11211;SDS011;5663;50.864;12.096;2024-02-16T06:05:39;4.70;;;2.73;;
11211;SDS011;5663;50.864;12.096;2024-02-16T06:08:10;4.43;;;2.50;;
11211;SDS011;5663;50.864;12.096;2024-02-16T06:10:38;3.50;;;2.47;;
11211;SDS011;5663;50.864;12.096;2024-02-16T06:13:07;3.03;;;2.53;;
11211;SDS011;5663;50.864;12.096;2024-02-16T06:15:36;4.67;;;2.87;;
11211;SDS011;5663;50.864;12.096;2024-02-16T06:18:06;4.07;;;2.80;;
11211;SDS011;5663;50.864;12.096;2024-02-16T06:20:33;4.07;;;2.83;;
11211;SDS011;5663;50.864;12.096;2024-02-16T06:23:03;4.83;;;2.57;;
11211;SDS011;5663;50.864;12.096;2024-02-16T06:25:30;4.23;;;2.73;;
11211;SDS011;5663;50.864;12.096;2024-02-16T06:27:58;5.43;;;2.77;;
11211;SDS011;5663;50.864;12.096;2024-02-16T06:30:26;5.27;;;3.17;;
11211;SDS011;5663;50.864;12.096;2024-02-16T06:32:54;3.33;;;2.67;;
11211;SDS011;5663;50.864;12.096;2024-02-16T06:35:21;5.73;;;3.00;;
11211;SDS011;5663;50.864;12.096;2024-02-16T06:37:49;6.13;;;2.90;;
11211;SDS011;5663;50.864;12.096;2024-02-16T06:40:19;7.90;;;2.90;;
11211;SDS011;5663;50.864;12.096;2024-02-16T06:42:47;3.63;;;2.50;;
11211;SDS011;5663;50.864;12.096;2024-02-16T06:45:15;3.70;;;2.17;;
11211;SDS011;5663;50.864;12.096;2024-02-16T06:47:45;2.47;;;2.27;;
11211;SDS011;5663;50.864;12.096;2024-02-16T06:50:14;3.40;;;2.57;;
11211;SDS011;5663;50.864;12.096;2024-02-16T06:52:43;3.97;;;2.80;;
11211;SDS011;5663;50.864;12.096;2024-02-16T06:55:12;4.27;;;2.57;;
11211;SDS011;5663;50.864;12.096;2024-02-16T06:57:40;4.43;;;2.50;;
11211;SDS011;5663;50.864;12.096;2024-02-16T07:00:10;3.27;;;2.70;;
11211;SDS011;5663;50.864;12.096;2024-02-16T07:02:39;3.97;;;2.67;;
11211;SDS011;5663;50.864;12.096;2024-02-16T07:05:09;4.33;;;2.87;;
11211;SDS011;5663;50.864;12.096;2024-02-16T07:07:37;6.80;;;3.00;;
11211;SDS011;5663;50.864;12.096;2024-02-16T07:10:07;3.27;;;2.90;;
11211;SDS011;5663;50.864;12.096;2024-02-16T07:12:44;4.80;;;3.33;;
11211;SDS011;5663;50.864;12.096;2024-02-16T07:15:12;7.50;;;3.30;;
11211;SDS011;5663;50.864;12.096;2024-02-16T07:17:40;7.43;;;3.57;;
11211;SDS011;5663;50.864;12.096;2024-02-16T07:20:10;4.10;;;2.90;;
11211;SDS011;5663;50.864;12.096;2024-02-16T07:22:42;6.40;;;3.63;;
11211;SDS011;5663;50.864;12.096;2024-02-16T07:25:14;6.13;;;3.20;;
11211;SDS011;5663;50.864;12.096;2024-02-16T07:27:45;11.33;;;3.60;;
11211;SDS011;5663;50.864;12.096;2024-02-16T07:30:13;5.63;;;3.30;;
11211;SDS011;5663;50.864;12.096;2024-02-16T07:32:41;5.03;;;3.33;;
11211;SDS011;5663;50.864;12.096;2024-02-16T07:35:11;5.17;;;3.30;;
11211;SDS011;5663;50.864;12.096;2024-02-16T07:37:39;5.63;;;2.83;;
11211;SDS011;5663;50.864;12.096;2024-02-16T07:40:08;5.73;;;2.80;;
11211;SDS011;5663;50.864;12.096;2024-02-16T07:42:37;5.83;;;2.90;;
11211;SDS011;5663;50.864;12.096;2024-02-16T07:45:08;2.97;;;2.67;;
11211;SDS011;5663;50.864;12.096;2024-02-16T07:47:37;4.90;;;2.50;;
11211;SDS011;5663;50.864;12.096;2024-02-16T07:50:06;4.00;;;2.63;;
11211;SDS011;5663;50.864;12.096;2024-02-16T07:52:37;3.07;;;2.20;;
11211;SDS011;5663;50.864;12.096;2024-02-16T07:55:05;3.33;;;2.30;;
11211;SDS011;5663;50.864;12.096;2024-02-16T07:57:34;4.37;;;2.30;;
11211;SDS011;5663;50.864;12.096;2024-02-16T08:00:07;3.17;;;2.50;;
11211;SDS011;5663;50.864;12.096;2024-02-16T08:02:38;3.43;;;2.53;;
11211;SDS011;5663;50.864;12.096;2024-02-16T08:05:07;2.93;;;2.30;;
11211;SDS011;5663;50.864;12.096;2024-02-16T08:07:35;5.10;;;2.73;;
11211;SDS011;5663;50.864;12.096;2024-02-16T08:10:07;2.73;;;2.33;;
11211;SDS011;5663;50.864;12.096;2024-02-16T08:12:35;5.53;;;2.73;;
11211;SDS011;5663;50.864;12.096;2024-02-16T08:15:15;2.87;;;2.50;;
11211;SDS011;5663;50.864;12.096;2024-02-16T08:18:04;2.77;;;2.43;;
11211;SDS011;5663;50.864;12.096;2024-02-16T08:20:32;6.57;;;3.20;;
11211;SDS011;5663;50.864;12.096;2024-02-16T08:23:01;3.53;;;2.67;;
11211;SDS011;5663;50.864;12.096;2024-02-16T08:25:35;4.07;;;3.20;;
11211;SDS011;5663;50.864;12.096;2024-02-16T08:28:02;4.60;;;2.83;;
11211;SDS011;5663;50.864;12.096;2024-02-16T08:30:32;6.00;;;2.70;;
11211;SDS011;5663;50.864;12.096;2024-02-16T08:33:02;5.07;;;2.80;;
11211;SDS011;5663;50.864;12.096;2024-02-16T08:35:32;7.90;;;2.67;;
11211;SDS011;5663;50.864;12.096;2024-02-16T08:38:00;4.57;;;2.50;;
11211;SDS011;5663;50.864;12.096;2024-02-16T08:40:27;2.93;;;2.63;;
11211;SDS011;5663;50.864;12.096;2024-02-16T08:42:55;3.10;;;2.63;;
11211;SDS011;5663;50.864;12.096;2024-02-16T08:45:24;3.20;;;2.60;;
11211;SDS011;5663;50.864;12.096;2024-02-16T08:47:57;3.77;;;2.60;;
11211;SDS011;5663;50.864;12.096;2024-02-16T08:50:27;7.07;;;2.80;;
11211;SDS011;5663;50.864;12.096;2024-02-16T08:52:56;4.73;;;2.50;;
11211;SDS011;5663;50.864;12.096;2024-02-16T08:55:23;3.30;;;2.50;;
11211;SDS011;5663;50.864;12.096;2024-02-16T08:57:50;3.63;;;2.60;;
11211;SDS011;5663;50.864;12.096;2024-02-16T09:00:18;2.63;;;2.10;;
11211;SDS011;5663;50.864;12.096;2024-02-16T09:02:46;5.87;;;2.50;;
11211;SDS011;5663;50.864;12.096;2024-02-16T09:05:15;3.10;;;2.30;;
11211;SDS011;5663;50.864;12.096;2024-02-16T09:07:42;4.57;;;2.73;;
11211;SDS011;5663;50.864;12.096;2024-02-16T09:10:11;2.77;;;2.40;;
11211;SDS011;5663;50.864;12.096;2024-02-16T09:12:40;6.30;;;2.30;;
11211;SDS011;5663;50.864;12.096;2024-02-16T09:15:09;3.47;;;2.20;;
11211;SDS011;5663;50.864;12.096;2024-02-16T09:17:38;2.70;;;2.17;;
11211;SDS011;5663;50.864;12.096;2024-02-16T09:20:07;5.67;;;2.50;;
11211;SDS011;5663;50.864;12.096;2024-02-16T09:22:37;3.73;;;2.20;;
11211;SDS011;5663;50.864;12.096;2024-02-16T09:25:07;3.23;;;2.23;;
11211;SDS011;5663;50.864;12.096;2024-02-16T09:27:37;2.93;;;2.10;;
11211;SDS011;5663;50.864;12.096;2024-02-16T09:30:09;2.60;;;2.03;;
11211;SDS011;5663;50.864;12.096;2024-02-16T09:32:38;3.13;;;2.20;;
11211;SDS011;5663;50.864;12.096;2024-02-16T09:35:06;3.17;;;2.10;;
11211;SDS011;5663;50.864;12.096;2024-02-16T09:37:34;3.20;;;2.30;;
11211;SDS011;5663;50.864;12.096;2024-02-16T09:40:07;4.20;;;2.17;;
11211;SDS011;5663;50.864;12.096;2024-02-16T09:42:38;5.47;;;2.20;;
11211;SDS011;5663;50.864;12.096;2024-02-16T09:45:06;2.17;;;1.93;;
11211;SDS011;5663;50.864;12.096;2024-02-16T09:47:34;3.60;;;2.10;;
11211;SDS011;5663;50.864;12.096;2024-02-16T09:50:02;5.43;;;2.10;;
11211;SDS011;5663;50.864;12.096;2024-02-16T09:52:30;5.00;;;2.10;;
11211;SDS011;5663;50.864;12.096;2024-02-16T09:54:58;2.53;;;2.00;;
11211;SDS011;5663;50.864;12.096;2024-02-16T09:57:29;2.57;;;2.10;;
11211;SDS011;5663;50.864;12.096;2024-02-16T09:59:58;3.40;;;1.87;;
11211;SDS011;5663;50.864;12.096;2024-02-16T10:02:27;2.43;;;2.00;;
11211;SDS011;5663;50.864;12.096;2024-02-16T10:04:55;2.67;;;1.93;;
11211;SDS011;5663;50.864;12.096;2024-02-16T10:07:30;3.10;;;1.90;;
11211;SDS011;5663;50.864;12.096;2024-02-16T10:09:59;2.13;;;1.90;;
11211;SDS011;5663;50.864;12.096;2024-02-16T10:12:26;3.73;;;2.00;;
11211;SDS011;5663;50.864;12.096;2024-02-16T10:14:56;3.00;;;2.10;;
11211;SDS011;5663;50.864;12.096;2024-02-16T10:17:25;3.07;;;2.00;;
11211;SDS011;5663;50.864;12.096;2024-02-16T10:19:55;3.40;;;2.10;;
11211;SDS011;5663;50.864;12.096;2024-02-16T10:22:24;3.03;;;2.13;;
11211;SDS011;5663;50.864;12.096;2024-02-16T10:24:54;2.20;;;2.00;;
11211;SDS011;5663;50.864;12.096;2024-02-16T10:27:21;2.10;;;1.90;;
11211;SDS011;5663;50.864;12.096;2024-02-16T10:29:49;5.70;;;2.20;;
11211;SDS011;5663;50.864;12.096;2024-02-16T10:32:21;4.10;;;1.90;;
11211;SDS011;5663;50.864;12.096;2024-02-16T10:34:49;2.67;;;1.80;;
11211;SDS011;5663;50.864;12.096;2024-02-16T10:37:18;3.57;;;2.00;;
11211;SDS011;5663;50.864;12.096;2024-02-16T10:39:45;4.37;;;1.90;;
11211;SDS011;5663;50.864;12.096;2024-02-16T10:42:14;2.50;;;2.00;;
11211;SDS011;5663;50.864;12.096;2024-02-16T10:44:43;2.90;;;2.20;;
11211;SDS011;5663;50.864;12.096;2024-02-16T10:47:13;2.60;;;1.90;;
11211;SDS011;5663;50.864;12.096;2024-02-16T10:49:42;3.43;;;1.93;;
11211;SDS011;5663;50.864;12.096;2024-02-16T10:52:10;4.13;;;1.90;;
11211;SDS011;5663;50.864;12.096;2024-02-16T10:54:38;3.30;;;1.90;;
11211;SDS011;5663;50.864;12.096;2024-02-16T10:57:07;2.37;;;1.93;;
11211;SDS011;5663;50.864;12.096;2024-02-16T10:59:37;3.43;;;2.00;;
11211;SDS011;5663;50.864;12.096;2024-02-16T11:02:07;2.77;;;2.00;;
11211;SDS011;5663;50.864;12.096;2024-02-16T11:04:38;2.10;;;1.77;;
11211;SDS011;5663;50.864;12.096;2024-02-16T11:07:12;2.17;;;1.80;;
11211;SDS011;5663;50.864;12.096;2024-02-16T11:09:42;3.73;;;2.00;;
11211;SDS011;5663;50.864;12.096;2024-02-16T11:12:11;1.90;;;1.70;;
11211;SDS011;5663;50.864;12.096;2024-02-16T11:14:41;2.93;;;1.90;;
11211;SDS011;5663;50.864;12.096;2024-02-16T11:17:11;1.97;;;1.77;;
11211;SDS011;5663;50.864;12.096;2024-02-16T11:19:40;3.50;;;2.27;;
11211;SDS011;5663;50.864;12.096;2024-02-16T11:22:07;3.10;;;1.67;;
11211;SDS011;5663;50.864;12.096;2024-02-16T11:24:43;2.43;;;2.00;;
11211;SDS011;5663;50.864;12.096;2024-02-16T11:27:12;5.43;;;1.90;;
11211;SDS011;5663;50.864;12.096;2024-02-16T11:29:43;3.47;;;2.10;;
11211;SDS011;5663;50.864;12.096;2024-02-16T11:32:10;3.23;;;2.03;;
11211;SDS011;5663;50.864;12.096;2024-02-16T11:34:38;3.83;;;2.20;;
11211;SDS011;5663;50.864;12.096;2024-02-16T11:37:05;3.67;;;2.50;;
11211;SDS011;5663;50.864;12.096;2024-02-16T11:39:33;5.33;;;2.47;;
11211;SDS011;5663;50.864;12.096;2024-02-16T11:42:05;2.47;;;2.27;;
11211;SDS011;5663;50.864;12.096;2024-02-16T11:44:34;5.20;;;2.50;;
11211;SDS011;5663;50.864;12.096;2024-02-16T11:47:02;6.03;;;1.93;;
11211;SDS011;5663;50.864;12.096;2024-02-16T11:49:31;4.73;;;2.00;;
11211;SDS011;5663;50.864;12.096;2024-02-16T11:52:00;4.87;;;2.10;;
11211;SDS011;5663;50.864;12.096;2024-02-16T11:54:29;2.40;;;2.20;;
11211;SDS011;5663;50.864;12.096;2024-02-16T11:56:58;2.53;;;1.70;;
11211;SDS011;5663;50.864;12.096;2024-02-16T11:59:29;2.20;;;1.80;;
11211;SDS011;5663;50.864;12.096;2024-02-16T12:01:57;3.07;;;2.20;;
11211;SDS011;5663;50.864;12.096;2024-02-16T12:04:25;2.63;;;1.77;;
11211;SDS011;5663;50.864;12.096;2024-02-16T12:06:54;4.63;;;1.83;;
11211;SDS011;5663;50.864;12.096;2024-02-16T12:09:24;2.60;;;1.70;;
11211;SDS011;5663;50.864;12.096;2024-02-16T12:11:53;3.13;;;2.00;;
11211;SDS011;5663;50.864;12.096;2024-02-16T12:14:23;3.57;;;1.93;;
11211;SDS011;5663;50.864;12.096;2024-02-16T12:16:59;4.77;;;2.07;;
11211;SDS011;5663;50.864;12.096;2024-02-16T12:19:28;2.80;;;2.10;;
11211;SDS011;5663;50.864;12.096;2024-02-16T12:21:57;2.13;;;1.70;;
11211;SDS011;5663;50.864;12.096;2024-02-16T12:24:26;3.70;;;2.00;;
11211;SDS011;5663;50.864;12.096;2024-02-16T12:26:54;3.43;;;1.57;;
11211;SDS011;5663;50.864;12.096;2024-02-16T12:29:22;3.70;;;1.73;;
11211;SDS011;5663;50.864;12.096;2024-02-16T12:31:52;2.77;;;1.70;;
11211;SDS011;5663;50.864;12.096;2024-02-16T12:34:26;4.63;;;2.03;;
11211;SDS011;5663;50.864;12.096;2024-02-16T12:36:57;4.07;;;1.90;;
11211;SDS011;5663;50.864;12.096;2024-02-16T12:39:27;5.37;;;1.90;;
11211;SDS011;5663;50.864;12.096;2024-02-16T12:41:56;4.00;;;2.03;;
11211;SDS011;5663;50.864;12.096;2024-02-16T12:44:24;2.57;;;2.00;;
11211;SDS011;5663;50.864;12.096;2024-02-16T12:46:52;3.00;;;2.10;;
11211;SDS011;5663;50.864;12.096;2024-02-16T12:49:19;3.13;;;2.10;;
11211;SDS011;5663;50.864;12.096;2024-02-16T12:51:51;2.60;;;2.10;;
11211;SDS011;5663;50.864;12.096;2024-02-16T12:54:20;2.57;;;2.00;;
11211;SDS011;5663;50.864;12.096;2024-02-16T12:56:48;2.57;;;1.93;;
11211;SDS011;5663;50.864;12.096;2024-02-16T12:59:17;3.13;;;2.03;;
11211;SDS011;5663;50.864;12.096;2024-02-16T13:01:44;2.67;;;1.90;;
11211;SDS011;5663;50.864;12.096;2024-02-16T13:04:12;4.23;;;2.10;;
11211;SDS011;5663;50.864;12.096;2024-02-16T13:06:48;4.73;;;2.10;;
11211;SDS011;5663;50.864;12.096;2024-02-16T13:09:25;2.50;;;2.00;;
11211;SDS011;5663;50.864;12.096;2024-02-16T13:11:55;3.40;;;2.03;;
11211;SDS011;5663;50.864;12.096;2024-02-16T13:14:24;3.43;;;2.67;;
11211;SDS011;5663;50.864;12.096;2024-02-16T13:16:54;3.60;;;2.33;;
11211;SDS011;5663;50.864;12.096;2024-02-16T13:19:22;3.07;;;2.30;;
11211;SDS011;5663;50.864;12.096;2024-02-16T13:21:49;2.57;;;2.17;;
11211;SDS011;5663;50.864;12.096;2024-02-16T13:24:18;2.67;;;2.13;;
11211;SDS011;5663;50.864;12.096;2024-02-16T13:26:49;3.60;;;2.07;;
11211;SDS011;5663;50.864;12.096;2024-02-16T13:29:17;2.70;;;2.23;;
11211;SDS011;5663;50.864;12.096;2024-02-16T13:31:45;3.13;;;2.40;;
11211;SDS011;5663;50.864;12.096;2024-02-16T13:34:13;5.97;;;2.20;;
11211;SDS011;5663;50.864;12.096;2024-02-16T13:36:41;4.00;;;2.30;;
11211;SDS011;5663;50.864;12.096;2024-02-16T13:39:08;4.80;;;2.50;;
11211;SDS011;5663;50.864;12.096;2024-02-16T13:41:36;4.27;;;2.10;;
11211;SDS011;5663;50.864;12.096;2024-02-16T13:44:07;2.40;;;2.17;;
11211;SDS011;5663;50.864;12.096;2024-02-16T13:46:40;3.23;;;2.30;;
11211;SDS011;5663;50.864;12.096;2024-02-16T13:49:26;6.67;;;2.33;;
11211;SDS011;5663;50.864;12.096;2024-02-16T13:52:21;3.20;;;2.13;;
11211;SDS011;5663;50.864;12.096;2024-02-16T13:54:50;2.90;;;2.07;;
11211;SDS011;5663;50.864;12.096;2024-02-16T13:57:19;3.47;;;2.50;;
11211;SDS011;5663;50.864;12.096;2024-02-16T13:59:49;5.07;;;2.50;;
11211;SDS011;5663;50.864;12.096;2024-02-16T14:02:16;6.27;;;2.60;;
11211;SDS011;5663;50.864;12.096;2024-02-16T14:04:44;3.70;;;2.70;;
11211;SDS011;5663;50.864;12.096;2024-02-16T14:07:11;4.60;;;2.10;;
11211;SDS011;5663;50.864;12.096;2024-02-16T14:09:39;3.63;;;2.27;;
11211;SDS011;5663;50.864;12.096;2024-02-16T14:12:09;4.57;;;2.67;;
11211;SDS011;5663;50.864;12.096;2024-02-16T14:14:39;3.93;;;2.60;;
11211;SDS011;5663;50.864;12.096;2024-02-16T14:17:08;4.77;;;2.40;;
11211;SDS011;5663;50.864;12.096;2024-02-16T14:19:40;2.50;;;2.20;;
11211;SDS011;5663;50.864;12.096;2024-02-16T14:22:10;2.80;;;2.00;;
11211;SDS011;5663;50.864;12.096;2024-02-16T14:24:38;3.07;;;2.20;;
11211;SDS011;5663;50.864;12.096;2024-02-16T14:27:08;4.83;;;2.03;;
11211;SDS011;5663;50.864;12.096;2024-02-16T14:29:37;2.87;;;2.10;;
11211;SDS011;5663;50.864;12.096;2024-02-16T14:32:06;3.73;;;2.20;;
11211;SDS011;5663;50.864;12.096;2024-02-16T14:34:35;4.17;;;2.20;;
11211;SDS011;5663;50.864;12.096;2024-02-16T14:37:04;7.63;;;2.40;;
11211;SDS011;5663;50.864;12.096;2024-02-16T14:39:34;2.77;;;2.10;;
11211;SDS011;5663;50.864;12.096;2024-02-16T14:42:04;2.93;;;2.23;;
11211;SDS011;5663;50.864;12.096;2024-02-16T14:44:33;3.40;;;2.23;;
11211;SDS011;5663;50.864;12.096;2024-02-16T14:47:02;3.90;;;2.40;;
11211;SDS011;5663;50.864;12.096;2024-02-16T14:49:32;2.93;;;2.20;;
11211;SDS011;5663;50.864;12.096;2024-02-16T14:52:02;4.67;;;2.70;;
11211;SDS011;5663;50.864;12.096;2024-02-16T14:54:29;3.97;;;2.40;;
11211;SDS011;5663;50.864;12.096;2024-02-16T14:56:57;4.50;;;2.33;;
11211;SDS011;5663;50.864;12.096;2024-02-16T14:59:26;3.37;;;2.10;;
11211;SDS011;5663;50.864;12.096;2024-02-16T15:01:54;3.43;;;2.23;;